Time;durP1;ratioP1;P1;durP2;ratioP2;P2;SDS_P1;SDS_P2;PMS_P1;PMS_P2;Temp;Humidity;BMP_temperature;BMP_pressure;BME280_temperature;BME280_humidity;BME280_pressure;Samples;Min_cycle;Max_cycle;Signal;HPM_P1;HPM_P2
2021/04/05 00:00:40;;;;;;;;;12.50;12.00;;;;;13.76;38.62;98055.50;4877826;28;103529;-80
2021/04/05 00:03:07;;;;;;;;;18.00;15.50;;;;;13.75;38.88;98056.56;4857783;28;104668;-80
2021/04/05 00:05:36;;;;;;;;;19.50;17.50;;;;;13.76;39.28;98052.78;4870833;28;102716;-80
2021/04/05 00:08:03;;;;;;;;;19.00;14.25;;;;;13.75;38.46;98048.41;4878090;28;102138;-80
2021/04/05 00:10:39;;;;;;;;;15.00;13.50;;;;;13.74;39.42;98041.31;4871296;28;103359;-80
2021/04/05 00:13:07;;;;;;;;;15.00;14.25;;;;;13.73;39.12;98037.78;4869206;28;102155;-79
2021/04/05 00:15:34;;;;;;;;;17.50;15.25;;;;;13.73;39.21;98034.25;4876419;28;102230;-79
2021/04/05 00:18:01;;;;;;;;;17.00;15.00;;;;;13.71;38.58;98034.47;4879618;28;103097;-80
2021/04/05 00:20:37;;;;;;;;;17.00;14.25;;;;;13.72;38.34;98043.47;4875684;28;104243;-80
2021/04/05 00:23:04;;;;;;;;;17.00;14.75;;;;;13.72;39.01;98040.75;4884290;28;102080;-80
2021/04/05 00:25:32;;;;;;;;;19.00;13.00;;;;;13.71;38.35;98033.66;4879747;28;102004;-79
2021/04/05 00:28:00;;;;;;;;;18.50;16.00;;;;;13.70;39.20;98026.56;4878353;28;102202;-80
2021/04/05 00:30:34;;;;;;;;;17.50;15.75;;;;;13.69;39.13;98016.75;4884520;28;103164;-79
2021/04/05 00:33:01;;;;;;;;;15.00;14.50;;;;;13.69;38.84;98017.56;4883586;28;103127;-80
2021/04/05 00:35:33;;;;;;;;;11.75;10.25;;;;;13.68;38.76;98015.09;4881784;28;102471;-80
2021/04/05 00:38:00;;;;;;;;;16.00;14.25;;;;;13.67;38.74;98017.00;4890186;28;101885;-79
2021/04/05 00:40:31;;;;;;;;;16.50;14.00;;;;;13.68;38.81;98006.97;4860073;28;106652;-79
2021/04/05 00:42:58;;;;;;;;;17.75;14.75;;;;;13.66;38.99;97998.19;4865843;28;102598;-79
2021/04/05 00:45:25;;;;;;;;;17.25;13.75;;;;;13.65;38.20;97991.09;4890427;28;104194;-80
2021/04/05 00:47:52;;;;;;;;;19.25;16.25;;;;;13.66;38.54;97993.59;4884041;28;102652;-80
2021/04/05 00:50:27;;;;;;;;;22.75;15.50;;;;;13.65;38.19;97975.63;4881138;28;107148;-80
2021/04/05 00:52:56;;;;;;;;;19.00;14.75;;;;;13.65;38.31;97977.53;4883946;28;102164;-80
2021/04/05 00:55:23;;;;;;;;;17.00;13.50;;;;;13.63;38.56;97974.22;4870356;28;102022;-80
2021/04/05 00:57:50;;;;;;;;;16.25;14.00;;;;;13.61;39.30;97969.03;4884477;28;102186;-79
2021/04/05 01:00:27;;;;;;;;;16.00;14.75;;;;;13.62;38.55;97964.41;4884090;28;104431;-79
2021/04/05 01:02:54;;;;;;;;;21.50;16.50;;;;;13.62;38.49;97961.72;4877921;28;103141;-80
2021/04/05 01:05:21;;;;;;;;;19.75;14.25;;;;;13.62;38.14;97961.72;4878508;28;103740;-80
2021/04/05 01:07:48;;;;;;;;;20.00;16.75;;;;;13.60;39.11;97961.94;4889963;28;104109;-80
2021/04/05 01:10:15;;;;;;;;;15.75;13.25;;;;;13.60;38.75;97955.69;4877951;28;104677;-80
2021/04/05 01:12:42;;;;;;;;;18.50;13.50;;;;;13.60;38.27;97950.28;4880145;28;103653;-80
2021/04/05 01:15:10;;;;;;;;;15.00;12.75;;;;;13.59;39.03;97951.31;4886221;28;102250;-80
2021/04/05 01:17:37;;;;;;;;;15.00;12.00;;;;;13.59;39.22;97943.16;4878561;28;102172;-80
2021/04/05 01:20:11;;;;;;;;;20.00;14.75;;;;;13.58;38.75;97941.50;4886560;28;103385;-80
2021/04/05 01:22:40;;;;;;;;;20.00;15.75;;;;;13.58;38.31;97946.94;4888944;28;103849;-80
2021/04/05 01:25:09;;;;;;;;;20.75;14.75;;;;;13.58;38.73;97936.91;4884779;28;102074;-80
2021/04/05 01:27:35;;;;;;;;;17.00;13.25;;;;;13.56;39.09;97932.75;4870401;28;103698;-80
2021/04/05 01:30:07;;;;;;;;;17.50;14.00;;;;;13.57;38.49;97928.97;4881739;28;102404;-80
2021/04/05 01:32:34;;;;;;;;;15.50;12.50;;;;;13.55;38.33;97918.38;4883623;28;102949;-80
2021/04/05 01:35:01;;;;;;;;;19.50;14.00;;;;;13.50;38.53;97901.97;4885798;28;101961;-80
2021/04/05 01:37:28;;;;;;;;;17.00;16.25;;;;;13.53;38.75;97914.22;4887996;28;102000;-80
2021/04/05 01:39:55;;;;;;;;;16.75;15.75;;;;;13.52;37.94;97907.13;4882161;28;102953;-80
2021/04/05 01:42:21;;;;;;;;;16.75;14.25;;;;;13.52;39.10;97905.25;4868079;28;101741;-80
2021/04/05 01:44:48;;;;;;;;;15.25;14.00;;;;;13.51;38.24;97900.88;4884230;28;102987;-80
2021/04/05 01:47:15;;;;;;;;;16.25;14.25;;;;;13.52;38.38;97894.38;4884555;28;103991;-80
2021/04/05 01:49:42;;;;;;;;;17.00;13.50;;;;;13.51;39.13;97886.50;4866593;28;104052;-80
2021/04/05 01:52:12;;;;;;;;;18.00;14.00;;;;;13.51;38.77;97887.28;4888238;28;101911;-80
2021/04/05 01:54:39;;;;;;;;;19.25;15.75;;;;;13.50;38.58;97876.69;4877524;28;102185;-80
2021/04/05 01:57:10;;;;;;;;;16.25;14.75;;;;;13.48;38.81;97865.22;4883887;28;103507;-80
2021/04/05 01:59:38;;;;;;;;;14.75;13.75;;;;;13.49;38.26;97867.72;4883008;28;103420;-80
2021/04/05 02:02:05;;;;;;;;;13.50;12.50;;;;;13.48;39.00;97859.78;4882144;28;102054;-80
2021/04/05 02:04:33;;;;;;;;;17.25;13.50;;;;;13.48;38.40;97866.06;4879246;28;103400;-80
2021/04/05 02:07:00;;;;;;;;;16.50;13.75;;;;;13.47;38.34;97863.56;4865301;28;102212;-80
2021/04/05 02:09:27;;;;;;;;;16.25;16.00;;;;;13.47;39.10;97861.69;4838399;28;105478;-80
2021/04/05 02:11:53;;;;;;;;;24.00;16.00;;;;;13.47;38.95;97856.25;4883658;28;102122;-80
2021/04/05 02:14:20;;;;;;;;;15.25;14.00;;;;;13.46;38.77;97856.50;4850976;28;101902;-80
2021/04/05 02:16:47;;;;;;;;;16.25;13.75;;;;;13.44;38.95;97845.03;4879391;28;103844;-80
2021/04/05 02:19:15;;;;;;;;;16.50;11.00;;;;;13.45;38.76;97846.69;4884359;28;103450;-80
2021/04/05 02:21:46;;;;;;;;;15.25;14.00;;;;;13.43;38.79;97832.50;4878831;28;104247;-80
2021/04/05 02:24:13;;;;;;;;;16.00;15.00;;;;;13.43;38.16;97835.22;4865586;28;101956;-80
2021/04/05 02:26:40;;;;;;;;;14.00;14.00;;;;;13.43;38.44;97825.19;4884936;28;102026;-80
2021/04/05 02:29:06;;;;;;;;;15.50;14.75;;;;;13.43;38.11;97818.94;4881932;28;103519;-80
2021/04/05 02:31:34;;;;;;;;;15.50;11.50;;;;;13.42;38.79;97822.75;4878848;28;101925;-82
2021/04/05 02:34:05;;;;;;;;;16.00;13.00;;;;;13.43;38.72;97810.78;4889716;28;102064;-82
2021/04/05 02:36:32;;;;;;;;;15.25;13.75;;;;;13.40;39.02;97815.66;4867417;28;101910;-79
2021/04/05 02:39:05;;;;;;;;;16.75;12.25;;;;;13.39;38.78;97808.56;4884505;28;103977;-80
2021/04/05 02:41:33;;;;;;;;;15.50;13.00;;;;;13.39;38.63;97810.44;4888333;28;101700;-80
2021/04/05 02:44:00;;;;;;;;;17.75;14.50;;;;;13.37;38.73;97799.81;4866373;28;102239;-80
2021/04/05 02:46:36;;;;;;;;;16.00;13.25;;;;;13.37;38.17;97791.66;4853700;28;102909;-80
2021/04/05 02:49:12;;;;;;;;;14.75;12.50;;;;;13.38;38.99;97787.91;4884311;28;103489;-80
2021/04/05 02:51:46;;;;;;;;;13.00;12.00;;;;;13.36;38.81;97781.91;4852814;28;102223;-80
2021/04/05 02:54:13;;;;;;;;;14.25;12.75;;;;;13.30;38.69;97760.28;4824140;28;102295;-82
2021/04/05 02:56:41;;;;;;;;;13.25;12.00;;;;;13.35;38.51;97768.53;4870281;28;101998;-80
2021/04/05 02:59:07;;;;;;;;;15.00;14.25;;;;;13.34;38.21;97762.28;4851316;28;103621;-80
2021/04/05 03:01:34;;;;;;;;;12.00;12.00;;;;;13.35;38.63;97763.13;4863275;28;102725;-80
2021/04/05 03:04:01;;;;;;;;;14.00;12.25;;;;;13.32;39.09;97756.28;4863107;28;104075;-80
2021/04/05 03:06:28;;;;;;;;;13.00;11.00;;;;;13.34;38.10;97751.44;4830326;28;103231;-80
2021/04/05 03:08:57;;;;;;;;;16.25;13.75;;;;;13.32;38.14;97742.72;4881587;28;103636;-80
2021/04/05 03:11:24;;;;;;;;;12.75;11.75;;;;;13.30;38.08;97739.41;4887248;28;102040;-80
2021/04/05 03:13:51;;;;;;;;;16.00;14.00;;;;;13.31;38.82;97743.78;4861900;28;102195;-80
2021/04/05 03:16:22;;;;;;;;;14.25;13.00;;;;;13.32;38.31;97742.72;4883676;28;102365;-80
2021/04/05 03:18:49;;;;;;;;;18.50;12.75;;;;;13.31;38.09;97737.50;4886221;28;103440;-80
2021/04/05 03:21:16;;;;;;;;;14.75;13.00;;;;;13.29;38.56;97734.19;4861877;28;102223;-80
2021/04/05 03:23:43;;;;;;;;;14.25;13.00;;;;;13.30;38.25;97725.00;4849843;28;102280;-80
2021/04/05 03:26:10;;;;;;;;;17.00;13.75;;;;;13.30;38.87;97728.53;4852464;28;102138;-80
2021/04/05 03:28:37;;;;;;;;;12.25;11.25;;;;;13.29;38.32;97721.44;4849304;28;105081;-80
2021/04/05 03:31:07;;;;;;;;;12.25;11.25;;;;;13.28;38.72;97717.06;4883356;28;102857;-80
2021/04/05 03:34:13;;;;;;;;;14.00;12.25;;;;;13.28;38.71;97708.13;4884542;28;102407;-80
2021/04/05 03:36:44;;;;;;;;;15.50;12.50;;;;;13.27;38.90;97701.06;4864264;28;102136;-82
2021/04/05 03:39:12;;;;;;;;;13.50;12.25;;;;;13.26;38.31;97689.38;4864201;28;103386;-80
2021/04/05 03:41:45;;;;;;;;;11.00;10.00;;;;;13.25;38.56;97693.13;4887040;28;102186;-80
2021/04/05 03:44:36;;;;;;;;;15.25;12.50;;;;;13.25;38.20;97687.72;4880518;28;102133;-80
2021/04/05 03:47:08;;;;;;;;;11.25;11.25;;;;;13.25;39.02;97673.31;4881404;28;103676;-80
2021/04/05 03:49:40;;;;;;;;;14.50;13.25;;;;;13.25;38.05;97670.59;4852600;28;103420;-80
2021/04/05 03:52:07;;;;;;;;;14.25;11.75;;;;;13.23;38.94;97653.72;4878663;28;102221;-80
2021/04/05 03:54:39;;;;;;;;;12.00;10.00;;;;;13.23;38.23;97660.00;4875688;28;102026;-80
2021/04/05 03:57:06;;;;;;;;;13.00;12.00;;;;;13.22;38.16;97655.63;4871581;28;102492;-82
2021/04/05 03:59:38;;;;;;;;;14.00;12.50;;;;;13.22;38.24;97644.75;4866114;28;103461;-80
2021/04/05 04:02:13;;;;;;;;;13.00;12.25;;;;;13.21;38.09;97643.09;4844964;28;101844;-80
2021/04/05 04:05:05;;;;;;;;;13.75;11.00;;;;;13.20;38.64;97632.47;4847702;28;102528;-80
2021/04/05 04:07:35;;;;;;;;;10.25;10.25;;;;;13.12;38.43;97611.97;4876279;28;102741;-80
2021/04/05 04:10:07;;;;;;;;;11.00;10.25;;;;;13.19;38.85;97622.72;4853697;28;103387;-80
2021/04/05 04:12:34;;;;;;;;;9.75;8.00;;;;;13.19;38.35;97617.28;4885931;28;103568;-80
2021/04/05 04:15:01;;;;;;;;;12.50;10.00;;;;;13.14;38.67;97609.88;4851135;28;102262;-82
2021/04/05 04:17:28;;;;;;;;;11.75;10.00;;;;;13.18;37.97;97605.59;4852655;28;102209;-82
2021/04/05 04:19:54;;;;;;;;;13.00;11.50;;;;;13.18;38.27;97599.34;4859038;28;103375;-82
2021/04/05 04:22:21;;;;;;;;;17.00;12.25;;;;;13.17;38.13;97598.50;4869224;28;102632;-80
2021/04/05 04:24:48;;;;;;;;;11.25;10.50;;;;;13.17;38.17;97587.66;4885497;28;102403;-82
2021/04/05 04:27:15;;;;;;;;;16.25;12.00;;;;;13.17;38.28;97584.94;4884390;28;103697;-82
2021/04/05 04:29:50;;;;;;;;;14.75;12.00;;;;;13.17;38.07;97567.81;4886535;28;105294;-80
2021/04/05 04:32:17;;;;;;;;;12.75;11.25;;;;;13.15;39.05;97557.22;4866765;28;101830;-80
2021/04/05 04:34:44;;;;;;;;;11.75;10.00;;;;;13.15;37.87;97559.91;4888626;28;102093;-82
2021/04/05 04:37:11;;;;;;;;;12.00;10.00;;;;;13.15;38.11;97543.63;4887699;28;101949;-82
2021/04/05 04:39:38;;;;;;;;;13.00;12.00;;;;;13.14;38.09;97547.44;4882978;28;103805;-82
2021/04/05 04:42:05;;;;;;;;;11.25;10.75;;;;;13.14;38.64;97539.28;4890241;28;102080;-82
2021/04/05 04:44:32;;;;;;;;;11.75;10.50;;;;;13.13;38.13;97531.38;4882957;28;103508;-80
2021/04/05 04:46:59;;;;;;;;;5.75;5.75;;;;;13.13;38.64;97534.94;4886628;28;101641;-81
2021/04/05 04:49:25;;;;;;;;;12.50;11.25;;;;;13.12;38.45;97527.84;4870197;28;104053;-80
2021/04/05 04:51:52;;;;;;;;;9.50;8.25;;;;;13.13;38.77;97525.97;4883544;28;103258;-81
2021/04/05 04:54:19;;;;;;;;;10.50;9.75;;;;;13.12;38.53;97519.69;4880411;28;102685;-82
2021/04/05 04:56:45;;;;;;;;;13.75;11.25;;;;;13.11;38.41;97515.34;4866945;28;103553;-80
2021/04/05 04:59:12;;;;;;;;;12.75;10.50;;;;;13.11;38.94;97504.47;4884684;28;103512;-82
2021/04/05 05:01:40;;;;;;;;;12.25;9.25;;;;;13.11;38.67;97507.19;4846242;28;102467;-82
2021/04/05 05:04:27;;;;;;;;;9.50;7.25;;;;;13.11;38.12;97500.94;4868883;28;101880;-82
2021/04/05 05:06:57;;;;;;;;;11.00;9.50;;;;;13.12;38.63;97519.69;4885651;28;104118;-80
2021/04/05 05:09:25;;;;;;;;;11.00;10.00;;;;;13.11;37.98;97512.63;4854699;28;102655;-81
2021/04/05 05:11:52;;;;;;;;;9.75;9.00;;;;;13.11;38.54;97507.19;4869139;28;102315;-82
2021/04/05 05:14:20;;;;;;;;;8.50;8.25;;;;;13.11;38.25;97499.06;4900607;28;102336;-80
2021/04/05 05:16:47;;;;;;;;;10.00;7.75;;;;;13.10;38.09;97488.44;4870506;28;101949;-80
2021/04/05 05:19:14;;;;;;;;;11.00;11.00;;;;;13.09;38.95;97473.22;4848750;28;105331;-80
2021/04/05 05:21:51;;;;;;;;;9.50;9.50;;;;;13.09;38.28;97471.31;4880621;28;102567;-80
2021/04/05 05:24:22;;;;;;;;;10.00;9.00;;;;;13.10;37.99;97462.13;4854940;28;103169;-81
2021/04/05 05:26:49;;;;;;;;;11.75;10.75;;;;;13.08;38.10;97472.38;4850982;28;103005;-82
2021/04/05 05:29:18;;;;;;;;;8.75;8.00;;;;;13.08;38.24;97466.94;4861153;28;103539;-82
2021/04/05 05:31:45;;;;;;;;;11.75;10.25;;;;;13.09;37.85;97457.75;4838985;28;101951;-80
2021/04/05 05:34:16;;;;;;;;;9.50;8.50;;;;;13.08;38.20;97442.53;4861889;28;104370;-79
2021/04/05 05:36:43;;;;;;;;;12.75;10.25;;;;;13.09;38.00;97443.34;4849060;28;101889;-79
2021/04/05 05:39:11;;;;;;;;;6.75;6.75;;;;;13.06;38.27;97441.94;4868942;28;103434;-79
2021/04/05 05:41:43;;;;;;;;;11.00;10.00;;;;;13.08;37.90;97447.13;4862130;28;102188;-79
2021/04/05 05:44:18;;;;;;;;;8.25;6.00;;;;;13.08;38.05;97437.09;4866543;28;101957;-80
2021/04/05 05:46:48;;;;;;;;;13.00;10.25;;;;;13.07;37.70;97435.44;4869034;28;103653;-80
2021/04/05 05:49:35;;;;;;;;;10.00;10.00;;;;;13.06;38.30;97438.44;4863928;28;103411;-79
2021/04/05 05:52:06;;;;;;;;;10.00;8.25;;;;;13.06;38.07;97439.22;4867537;28;102091;-79
2021/04/05 05:54:58;;;;;;;;;11.00;7.00;;;;;13.07;37.96;97430.03;4865761;28;102375;-79
2021/04/05 05:57:37;;;;;;;;;6.00;6.00;;;;;13.07;38.75;97421.06;4864982;28;104413;-79
2021/04/05 06:00:59;;;;;;;;;10.00;8.25;;;;;13.07;38.09;97426.47;4983511;23;103271;-80
2021/04/05 06:04:40;;;;;;;;;7.75;6.25;;;;;13.07;37.81;97418.34;4860572;28;101808;-78
2021/04/05 06:07:47;;;;;;;;;7.00;7.00;;;;;13.06;37.68;97420.22;4859955;29;101939;-77
2021/04/05 06:11:17;;;;;;;;;6.75;6.75;;;;;13.06;38.67;97422.94;4880152;28;101573;-77
2021/04/05 06:14:48;;;;;;;;;8.00;6.25;;;;;13.06;38.41;97422.94;4890467;28;103460;-78
2021/04/05 06:18:12;;;;;;;;;11.00;9.25;;;;;13.05;38.00;97415.06;4889554;28;101741;-77
2021/04/05 06:21:28;;;;;;;;;8.25;7.00;;;;;13.05;38.06;97415.88;4894703;28;101436;-77
2021/04/05 06:24:38;;;;;;;;;9.75;6.25;;;;;13.06;37.84;97403.16;4888813;28;101313;-77
2021/04/05 06:27:56;;;;;;;;;9.00;7.00;;;;;13.04;38.16;97403.38;4888826;28;103142;-77
2021/04/05 06:31:18;;;;;;;;;6.25;6.25;;;;;13.05;37.99;97388.75;4893234;28;101762;-77
2021/04/05 06:34:41;;;;;;;;;7.50;6.00;;;;;13.04;38.71;97381.66;4892834;28;103063;-77
2021/04/05 06:38:02;;;;;;;;;6.00;6.00;;;;;13.04;38.40;97370.81;4893036;28;101370;-77
2021/04/05 06:41:20;;;;;;;;;6.00;6.00;;;;;13.04;37.70;97368.09;4889605;28;103392;-77
2021/04/05 06:44:32;;;;;;;;;6.75;6.25;;;;;13.06;38.50;97367.88;4876642;28;101519;-77
2021/04/05 06:47:49;;;;;;;;;9.75;5.00;;;;;13.05;37.79;97358.91;4890560;28;101936;-77
2021/04/05 06:51:17;;;;;;;;;10.00;7.00;;;;;13.05;37.90;97358.91;4892127;28;101662;-77
2021/04/05 06:54:34;;;;;;;;;8.50;6.00;;;;;13.03;37.98;97344.75;4895385;28;103748;-77
2021/04/05 06:57:59;;;;;;;;;7.50;5.25;;;;;13.06;38.76;97349.66;4884864;28;102591;-76
2021/04/05 07:01:27;;;;;;;;;9.50;7.00;;;;;13.06;38.25;97348.88;4889150;28;101531;-77
2021/04/05 07:05:11;;;;;;;;;6.00;5.25;;;;;13.07;38.34;97345.88;4891505;28;101437;-76
2021/04/05 07:08:38;;;;;;;;;8.50;7.25;;;;;13.07;38.33;97337.75;4896779;28;102046;-77
2021/04/05 07:12:18;;;;;;;;;6.25;6.00;;;;;13.07;37.87;97329.59;4890499;28;101116;-77
2021/04/05 07:15:47;;;;;;;;;8.50;6.00;;;;;13.09;38.81;97341.06;4903542;28;102968;-77
2021/04/05 07:18:55;;;;;;;;;8.75;7.00;;;;;13.10;37.74;97336.44;4892443;28;102617;-76
2021/04/05 07:22:18;;;;;;;;;7.50;6.50;;;;;13.09;38.83;97329.38;4883312;28;101939;-76
2021/04/05 07:25:45;;;;;;;;;6.25;6.00;;;;;13.09;37.93;97332.09;4871027;28;102937;-78
2021/04/05 07:28:55;;;;;;;;;6.00;6.00;;;;;13.08;38.56;97328.53;4853705;28;101648;-77
2021/04/05 07:32:06;;;;;;;;;6.75;5.50;;;;;13.09;38.48;97308.47;4883856;28;103371;-76
2021/04/05 07:35:37;;;;;;;;;5.50;5.50;;;;;13.10;38.27;97320.16;4890752;28;102353;-76
2021/04/05 07:39:00;;;;;;;;;7.25;5.00;;;;;13.11;38.49;97317.22;4880247;28;101707;-76
2021/04/05 07:42:34;;;;;;;;;5.25;5.00;;;;;13.11;38.18;97311.78;4880794;28;102688;-77
2021/04/05 07:46:00;;;;;;;;;7.00;5.75;;;;;13.12;38.25;97308.00;4876344;28;101818;-77
2021/04/05 07:49:27;;;;;;;;;5.25;5.25;;;;;13.13;37.97;97295.25;4889472;28;102316;-76
2021/04/05 07:53:10;;;;;;;;;5.25;5.00;;;;;13.13;38.72;97282.53;4833699;29;101566;-77
2021/04/05 07:56:42;;;;;;;;;4.50;4.25;;;;;13.15;38.70;97285.78;4837613;28;101446;-79
2021/04/05 07:59:55;;;;;;;;;3.50;3.50;;;;;13.16;37.66;97281.19;4892395;28;101687;-78
2021/04/05 08:03:19;;;;;;;;;4.50;4.50;;;;;13.16;38.49;97271.16;4891891;28;101792;-78
2021/04/05 08:06:47;;;;;;;;;4.25;4.00;;;;;13.16;37.88;97265.72;4887340;28;101979;-77
2021/04/05 08:10:02;;;;;;;;;4.50;4.25;;;;;13.17;37.83;97264.66;4888460;28;101534;-78
2021/04/05 08:13:23;;;;;;;;;4.50;4.00;;;;;13.15;38.43;97236.94;4872290;28;102282;-78
2021/04/05 08:16:56;;;;;;;;;4.25;4.00;;;;;13.15;37.80;97234.22;4875391;28;103469;-78
2021/04/05 08:20:16;;;;;;;;;3.25;3.25;;;;;13.21;38.06;97235.94;4892405;28;101644;-77
2021/04/05 08:24:02;;;;;;;;;4.00;4.00;;;;;13.21;37.83;97222.38;4870197;28;104905;-77
2021/04/05 08:27:00;;;;;;;;;5.00;4.00;;;;;13.21;38.68;97219.66;4857331;28;101441;-78
2021/04/05 08:30:07;;;;;;;;;3.25;2.75;;;;;13.24;38.57;97210.19;4846407;29;102431;-78
2021/04/05 08:32:58;;;;;;;;;3.50;3.50;;;;;13.24;37.92;97202.84;4852616;28;101959;-80
2021/04/05 08:36:01;;;;;;;;;6.00;4.00;;;;;13.23;37.86;97211.28;4870390;28;102001;-76
2021/04/05 08:38:50;;;;;;;;;3.75;3.75;;;;;13.24;37.89;97191.19;4878429;28;101938;-77
2021/04/05 08:42:13;;;;;;;;;3.75;3.75;;;;;13.28;38.42;97179.56;4873913;28;101930;-76
2021/04/05 08:45:12;;;;;;;;;2.50;2.50;;;;;13.33;39.50;97166.06;4879470;28;101484;-82
2021/04/05 08:48:34;;;;;;;;;6.25;3.50;;;;;13.36;39.14;97146.56;4892085;28;101628;-80
2021/04/05 08:52:01;;;;;;;;;3.00;3.00;;;;;13.40;40.21;97142.25;4884452;28;101852;-76
2021/04/05 08:54:59;;;;;;;;;3.00;3.00;;;;;13.44;40.28;97139.84;4886948;28;101888;-79
2021/04/05 08:58:40;;;;;;;;;2.25;2.25;;;;;13.49;40.85;97136.38;4887444;28;101458;-76
2021/04/05 09:01:55;;;;;;;;;2.75;2.00;;;;;13.51;40.67;97123.38;4889960;28;101687;-77
2021/04/05 09:04:37;;;;;;;;;3.25;2.75;;;;;13.53;40.92;97121.22;4853564;28;101763;-77
2021/04/05 09:08:00;;;;;;;;;2.25;1.25;;;;;13.55;40.99;97119.06;4850126;28;104655;-76
2021/04/05 09:10:46;;;;;;;;;1.50;1.00;;;;;13.53;40.75;97094.88;4819637;29;102574;-76
2021/04/05 09:14:00;;;;;;;;;1.25;1.25;;;;;13.57;41.69;97101.44;4889752;28;101712;-76
2021/04/05 09:16:48;;;;;;;;;3.00;1.50;;;;;13.63;40.94;97097.69;4892136;28;101839;-75
2021/04/05 09:19:45;;;;;;;;;1.00;1.00;;;;;13.64;41.32;97080.34;4889566;28;104263;-76
2021/04/05 09:23:06;;;;;;;;;1.25;1.00;;;;;13.69;41.57;97090.41;4894179;28;101216;-75
2021/04/05 09:26:44;;;;;;;;;1.25;1.00;;;;;13.71;41.46;97074.66;4889757;28;101859;-77
2021/04/05 09:29:44;;;;;;;;;2.25;1.75;;;;;13.73;41.69;97076.03;4893503;28;101126;-76
2021/04/05 09:33:07;;;;;;;;;1.00;1.00;;;;;13.75;42.21;97070.34;4889578;28;104539;-76
2021/04/05 09:36:35;;;;;;;;;1.00;1.00;;;;;13.81;41.35;97061.19;4885113;28;102312;-76
2021/04/05 09:39:31;;;;;;;;;1.00;1.00;;;;;13.83;42.23;97053.56;4870218;28;105128;-75
2021/04/05 09:42:44;;;;;;;;;2.25;1.00;;;;;13.85;42.43;97044.09;4890411;28;102153;-75
2021/04/05 09:45:44;;;;;;;;;1.75;0.75;;;;;13.89;41.90;97040.84;4885792;28;103544;-75
2021/04/05 09:48:42;;;;;;;;;2.00;1.75;;;;;13.91;41.42;97042.25;4878856;28;101619;-75
2021/04/05 09:51:48;;;;;;;;;2.00;2.00;;;;;13.92;41.72;97030.28;4887619;28;101675;-77
2021/04/05 09:55:05;;;;;;;;;1.75;1.75;;;;;13.93;41.95;97031.94;4878955;28;101872;-76
2021/04/05 09:58:03;;;;;;;;;1.00;1.00;;;;;13.92;41.71;97022.13;4878987;28;101867;-76
2021/04/05 10:01:38;;;;;;;;;1.00;1.00;;;;;13.95;40.79;97026.25;4884449;28;102018;-76
2021/04/05 10:04:41;;;;;;;;;1.00;1.00;;;;;13.96;40.87;97015.09;4881714;28;101816;-76
2021/04/05 10:07:37;;;;;;;;;1.25;1.00;;;;;13.97;41.24;97007.75;4889662;28;102190;-75
2021/04/05 10:10:46;;;;;;;;;1.00;1.00;;;;;13.98;41.31;96999.34;4889705;28;104002;-75
2021/04/05 10:13:48;;;;;;;;;2.00;1.75;;;;;13.97;40.95;96988.75;4894412;28;101686;-76
2021/04/05 10:17:01;;;;;;;;;1.00;1.00;;;;;13.99;40.45;96984.69;4883405;28;101320;-76
2021/04/05 10:20:04;;;;;;;;;1.25;1.25;;;;;14.01;41.37;96989.84;4902032;28;103266;-77
2021/04/05 10:23:29;;;;;;;;;2.00;2.00;;;;;14.07;40.96;96984.19;4891515;28;101994;-85
2021/04/05 10:27:05;;;;;;;;;2.00;2.00;;;;;14.20;41.39;96978.28;4879145;28;101708;-86
2021/04/05 10:30:00;;;;;;;;;0.75;0.75;;;;;14.34;40.16;96972.38;4884183;28;101526;-86
2021/04/05 10:32:49;;;;;;;;;2.25;1.75;;;;;14.41;40.28;96973.00;4862973;28;103160;-74
2021/04/05 10:36:00;;;;;;;;;1.00;0.00;;;;;14.44;40.11;96958.88;4888681;28;104734;-83
2021/04/05 10:38:38;;;;;;;;;1.00;1.00;;;;;14.45;40.13;96958.63;4889140;28;101855;-80
2021/04/05 10:41:43;;;;;;;;;2.00;1.25;;;;;14.54;40.43;96953.47;4877961;28;101312;-80
2021/04/05 10:45:00;;;;;;;;;20.00;17.00;;;;;14.50;40.69;96955.09;4887185;28;101938;-81
2021/04/05 10:48:07;;;;;;;;;30.50;23.75;;;;;14.56;40.60;96938.50;4870760;28;102619;-81
2021/04/05 10:52:00;;;;;;;;;33.50;23.25;;;;;14.58;40.50;96943.69;4886601;28;101571;-82
2021/04/05 10:55:02;;;;;;;;;29.25;23.75;;;;;14.56;40.51;96929.53;4890417;28;101391;-78
2021/04/05 10:58:20;;;;;;;;;32.75;21.00;;;;;14.56;39.98;96932.25;4874143;28;101557;-81
2021/04/05 11:01:50;;;;;;;;;25.25;20.25;;;;;14.55;40.66;96908.84;4879353;28;101956;-78
2021/04/05 11:04:57;;;;;;;;;26.00;21.50;;;;;14.55;40.50;96914.28;4873916;28;101771;-82
2021/04/05 11:07:48;;;;;;;;;23.00;18.00;;;;;14.56;39.64;96913.22;4889937;28;102982;-80
2021/04/05 11:10:54;;;;;;;;;23.25;19.00;;;;;14.54;39.38;96901.78;4881863;28;101566;-77
2021/04/05 11:14:00;;;;;;;;;21.50;19.75;;;;;14.56;39.64;96881.41;4885268;28;102990;-78
2021/04/05 11:17:00;;;;;;;;;21.50;18.00;;;;;14.58;39.83;96881.94;4886213;28;101880;-81
2021/04/05 11:20:02;;;;;;;;;24.00;20.00;;;;;14.58;39.92;96902.91;4874231;28;101329;-80
2021/04/05 11:23:50;;;;;;;;;16.50;14.75;;;;;14.59;39.06;96885.50;4882143;28;101312;-78
2021/04/05 11:27:15;;;;;;;;;17.25;14.00;;;;;14.59;39.68;96871.91;4894811;28;103054;-76
2021/04/05 11:30:09;;;;;;;;;17.25;14.75;;;;;14.59;39.91;96866.47;4881916;28;101965;-80
2021/04/05 11:33:11;;;;;;;;;20.25;15.50;;;;;14.58;39.55;96856.66;4888996;28;104057;-80
2021/04/05 11:36:20;;;;;;;;;17.75;14.00;;;;;14.61;39.04;96872.44;4868641;28;103194;-82
2021/04/05 11:39:31;;;;;;;;;17.50;13.00;;;;;14.60;39.38;96863.44;4862024;28;102632;-81
2021/04/05 11:42:44;;;;;;;;;14.25;11.00;;;;;14.60;39.30;96843.59;4889073;28;101345;-81
2021/04/05 11:46:01;;;;;;;;;14.50;10.00;;;;;14.63;39.53;96841.13;4888265;28;101731;-82
2021/04/05 11:49:21;;;;;;;;;15.75;12.50;;;;;14.63;39.30;96841.13;4890597;28;102313;-81
2021/04/05 11:52:02;;;;;;;;;18.50;10.75;;;;;14.64;39.34;96845.50;4869871;28;104359;-82
2021/04/05 11:55:48;;;;;;;;;12.75;10.00;;;;;14.63;38.89;96830.25;4868819;28;101428;-81
2021/04/05 11:59:47;;;;;;;;;11.25;9.50;;;;;14.70;39.44;96822.66;4884370;28;102147;-81
2021/04/05 12:03:17;;;;;;;;;9.50;8.25;;;;;14.73;38.65;96822.13;4891279;28;102418;-80
2021/04/05 12:07:00;;;;;;;;;10.25;7.25;;;;;14.75;39.36;96819.13;4876076;28;102171;-83
2021/04/05 12:10:18;;;;;;;;;7.75;7.00;;;;;14.79;38.20;96817.50;4876939;28;101577;-80
2021/04/05 12:14:01;;;;;;;;;11.50;10.00;;;;;14.83;38.45;96777.78;4876188;28;101446;-81
2021/04/05 12:17:01;;;;;;;;;7.75;6.50;;;;;14.87;38.57;96792.47;4869887;28;102227;-79
2021/04/05 12:20:01;;;;;;;;;7.00;5.75;;;;;14.91;38.38;96788.09;4875607;28;104102;-79
2021/04/05 12:23:40;;;;;;;;;8.00;7.00;;;;;14.95;38.50;96789.19;4883384;28;103579;-78
2021/04/05 12:26:40;;;;;;;;;8.75;6.50;;;;;14.97;38.67;96788.91;4880325;28;103379;-79
2021/04/05 12:30:08;;;;;;;;;6.50;5.50;;;;;15.06;38.84;96799.00;4892573;28;102979;-78
2021/04/05 12:33:30;;;;;;;;;10.25;7.00;;;;;15.09;38.78;96806.59;4890121;28;105000;-78
2021/04/05 12:37:00;;;;;;;;;6.00;5.00;;;;;15.10;38.87;96789.19;4896734;28;102078;-78
2021/04/05 12:39:44;;;;;;;;;9.00;6.75;;;;;15.12;37.92;96797.91;4879151;28;101242;-78
2021/04/05 12:42:41;;;;;;;;;6.25;6.25;;;;;15.13;38.39;96787.81;4876972;28;101331;-77
2021/04/05 12:45:42;;;;;;;;;6.00;5.00;;;;;15.13;38.41;96785.91;4878148;28;104568;-78
2021/04/05 12:48:40;;;;;;;;;6.25;5.50;;;;;15.14;38.34;96784.81;4872360;28;101846;-79
2021/04/05 12:51:37;;;;;;;;;6.25;4.50;;;;;15.14;37.86;96782.09;4869337;28;101922;-79
2021/04/05 12:54:37;;;;;;;;;5.50;5.25;;;;;15.16;37.87;96771.75;4856734;28;101674;-77
2021/04/05 12:57:40;;;;;;;;;6.00;5.00;;;;;15.14;38.17;96784.81;4860539;28;104810;-79
2021/04/05 13:00:48;;;;;;;;;4.50;4.00;;;;;15.15;37.66;96783.75;4872740;28;101842;-78
2021/04/05 13:04:02;;;;;;;;;4.50;4.50;;;;;15.14;37.89;96759.50;4891517;28;101945;-77
2021/04/05 13:07:22;;;;;;;;;6.25;4.00;;;;;15.14;37.63;96754.88;4863202;28;101471;-79